Raleigh, NC (27603)

9:50 PM EDT op 31 augustus 2016 (GMT -0400)
Renaissance Park | | Change Station

Hoogte 361 ft 35.74 °N, 78.66 °W | Updated 5 minutes ago

Mostly Cloudy
Merendeels bewolkt
80.3 °F
Voelt als 84 °F
N
2.0
Wind Variabel Wind van zuid
Gusts 2.0 mijl/u

Vandaag
Hoog -- | Laag -- °F
--% Kans op neerslag
Gisteren
Hoog -- | Laag -- °F
Precip. -- inches
Druk 29.91 inches
Zicht 10.0 mijlen
Wolken Gering 8000 ft
Licht bewolkt 20000 ft
Merendeels bewolkt 25000 ft
Warmteindex 84 °F
Dauwpunt 72 °F
Vochtigheid 77%
Neerslag 0.00 inches
Dikte sneeuw Niet beschikbaar.
6:46 AM 7:42 PM
Afnemende halvemaan, 0% visible
METAR KRDU 010051Z 16006KT 10SM FEW080 SCT200 BKN250 27/21 A2993 RMK AO2 SLP129 T02720206
Druk 29.91 inches
Zicht 10.0 mijlen
Wolken Gering 8000 ft
Licht bewolkt 20000 ft
Merendeels bewolkt 25000 ft
Warmteindex 84 °F
Dauwpunt 72 °F
Vochtigheid 77%
Neerslag 0.00 inches
Dikte sneeuw Niet beschikbaar.
6:46 AM 7:42 PM
Afnemende halvemaan, 0% visible
METAR KRDU 010051Z 16006KT 10SM FEW080 SCT200 BKN250 27/21 A2993 RMK AO2 SLP129 T02720206

10-Day Weather Forecast

Almanac

Astronomie

Aug. 31, 2016 Opkomst Ondergang
Werkelijke tijd
Burgerlijke schemering
Nautische schemering
Astronomische schemering
Maan
Golflengte van het zichtbare licht
Daglengte
Tomorrow will be .
, % of the Moon is Illuminated

Extremen vandaag

State Highs State Lows

Community

WunderPhotos

Upload Photos

1,936,266 foto’s ge-upload!

WunderBlog® & News

Nearby

Luchtkwaliteit

  Luchtkwaliteit LK-index Verontreinigende stof
Not available.

Dikte sneeuw

Station Depth Geometrische hoogte

Aardbevingen

Stad Distance Mag. Time & Date
Minimum magnitude displayed is 2.5.

Watertemperatuur langs de kust

Plaats Temperatuur

Stations

Nabije weerstations

Locatie station Temp. Gevoelstemperatuur Dauwpunt Vochtigheid Wind Precip. Hoogte Geactualiseerd Type
                   

Watches & Warnings

There are currently no watches in effect.